sensor_id;sensor_type;location;lat;lon;timestamp;P1;durP1;ratioP1;P2;durP2;ratioP2
34278;SDS011;20538;51.528;9.942;2023-03-31T00:01:24;8.02;;;1.85;;
34278;SDS011;20538;51.528;9.942;2023-03-31T00:03:50;5.88;;;1.95;;
34278;SDS011;20538;51.528;9.942;2023-03-31T00:06:15;7.72;;;2.30;;
34278;SDS011;20538;51.528;9.942;2023-03-31T00:08:44;7.38;;;2.10;;
34278;SDS011;20538;51.528;9.942;2023-03-31T00:11:15;8.02;;;2.10;;
34278;SDS011;20538;51.528;9.942;2023-03-31T00:13:40;4.65;;;1.35;;
34278;SDS011;20538;51.528;9.942;2023-03-31T00:16:07;5.40;;;1.90;;
34278;SDS011;20538;51.528;9.942;2023-03-31T00:18:34;9.10;;;2.25;;
34278;SDS011;20538;51.528;9.942;2023-03-31T00:21:07;10.90;;;2.10;;
34278;SDS011;20538;51.528;9.942;2023-03-31T00:23:38;8.85;;;2.17;;
34278;SDS011;20538;51.528;9.942;2023-03-31T00:26:04;11.48;;;2.70;;
34278;SDS011;20538;51.528;9.942;2023-03-31T00:28:30;10.32;;;2.30;;
34278;SDS011;20538;51.528;9.942;2023-03-31T00:31:00;6.68;;;2.00;;
34278;SDS011;20538;51.528;9.942;2023-03-31T00:33:26;8.85;;;2.08;;
34278;SDS011;20538;51.528;9.942;2023-03-31T00:35:52;7.88;;;1.50;;
34278;SDS011;20538;51.528;9.942;2023-03-31T00:38:19;4.43;;;1.52;;
34278;SDS011;20538;51.528;9.942;2023-03-31T00:40:48;8.82;;;1.55;;
34278;SDS011;20538;51.528;9.942;2023-03-31T00:43:59;6.82;;;1.63;;
34278;SDS011;20538;51.528;9.942;2023-03-31T00:46:09;9.73;;;1.38;;
34278;SDS011;20538;51.528;9.942;2023-03-31T00:48:44;5.78;;;1.20;;
34278;SDS011;20538;51.528;9.942;2023-03-31T00:51:14;8.02;;;1.60;;
34278;SDS011;20538;51.528;9.942;2023-03-31T00:53:40;7.35;;;1.33;;
34278;SDS011;20538;51.528;9.942;2023-03-31T00:56:08;5.38;;;1.20;;
34278;SDS011;20538;51.528;9.942;2023-03-31T00:58:37;9.82;;;1.70;;
34278;SDS011;20538;51.528;9.942;2023-03-31T01:01:08;5.70;;;1.30;;
34278;SDS011;20538;51.528;9.942;2023-03-31T01:03:39;7.63;;;1.48;;
34278;SDS011;20538;51.528;9.942;2023-03-31T01:06:06;8.00;;;1.90;;
34278;SDS011;20538;51.528;9.942;2023-03-31T01:08:34;6.10;;;1.40;;
34278;SDS011;20538;51.528;9.942;2023-03-31T01:11:03;7.40;;;2.00;;
34278;SDS011;20538;51.528;9.942;2023-03-31T01:13:33;10.32;;;1.42;;
34278;SDS011;20538;51.528;9.942;2023-03-31T01:16:01;6.63;;;1.80;;
34278;SDS011;20538;51.528;9.942;2023-03-31T01:18:27;8.07;;;1.73;;
34278;SDS011;20538;51.528;9.942;2023-03-31T01:23:55;8.77;;;1.90;;
34278;SDS011;20538;51.528;9.942;2023-03-31T01:32:05;9.10;;;1.40;;
34278;SDS011;20538;51.528;9.942;2023-03-31T01:40:30;6.20;;;1.55;;
34278;SDS011;20538;51.528;9.942;2023-03-31T01:59:00;7.00;;;1.25;;
34278;SDS011;20538;51.528;9.942;2023-03-31T02:01:36;7.10;;;1.45;;
34278;SDS011;20538;51.528;9.942;2023-03-31T02:04:16;6.28;;;1.50;;
34278;SDS011;20538;51.528;9.942;2023-03-31T02:07:09;9.63;;;1.27;;
34278;SDS011;20538;51.528;9.942;2023-03-31T02:09:43;6.30;;;1.45;;
34278;SDS011;20538;51.528;9.942;2023-03-31T02:12:13;8.27;;;1.33;;
34278;SDS011;20538;51.528;9.942;2023-03-31T02:14:42;7.20;;;1.42;;
34278;SDS011;20538;51.528;9.942;2023-03-31T02:17:15;10.85;;;1.77;;
34278;SDS011;20538;51.528;9.942;2023-03-31T02:19:43;11.15;;;2.05;;
34278;SDS011;20538;51.528;9.942;2023-03-31T02:22:13;6.45;;;1.50;;
34278;SDS011;20538;51.528;9.942;2023-03-31T02:24:43;6.25;;;1.60;;
34278;SDS011;20538;51.528;9.942;2023-03-31T02:29:55;4.78;;;1.67;;
34278;SDS011;20538;51.528;9.942;2023-03-31T02:32:22;5.80;;;1.70;;
34278;SDS011;20538;51.528;9.942;2023-03-31T02:34:54;5.70;;;1.55;;
34278;SDS011;20538;51.528;9.942;2023-03-31T02:37:20;8.77;;;1.58;;
34278;SDS011;20538;51.528;9.942;2023-03-31T02:39:46;6.85;;;1.33;;
34278;SDS011;20538;51.528;9.942;2023-03-31T02:42:15;6.00;;;1.42;;
34278;SDS011;20538;51.528;9.942;2023-03-31T02:44:41;13.10;;;1.77;;
34278;SDS011;20538;51.528;9.942;2023-03-31T02:47:07;8.82;;;1.30;;
34278;SDS011;20538;51.528;9.942;2023-03-31T02:49:35;5.18;;;1.23;;
34278;SDS011;20538;51.528;9.942;2023-03-31T02:57:30;8.25;;;1.50;;
34278;SDS011;20538;51.528;9.942;2023-03-31T03:05:50;8.20;;;1.20;;
34278;SDS011;20538;51.528;9.942;2023-03-31T03:13:50;3.97;;;1.13;;
34278;SDS011;20538;51.528;9.942;2023-03-31T03:16:31;5.68;;;1.20;;
34278;SDS011;20538;51.528;9.942;2023-03-31T03:19:02;6.53;;;1.30;;
34278;SDS011;20538;51.528;9.942;2023-03-31T03:21:30;8.38;;;1.38;;
34278;SDS011;20538;51.528;9.942;2023-03-31T03:23:56;8.15;;;1.67;;
34278;SDS011;20538;51.528;9.942;2023-03-31T03:26:23;3.28;;;1.20;;
34278;SDS011;20538;51.528;9.942;2023-03-31T03:28:52;6.72;;;1.30;;
34278;SDS011;20538;51.528;9.942;2023-03-31T03:31:21;5.95;;;1.10;;
34278;SDS011;20538;51.528;9.942;2023-03-31T03:33:50;6.18;;;1.30;;
34278;SDS011;20538;51.528;9.942;2023-03-31T03:36:16;5.28;;;1.58;;
34278;SDS011;20538;51.528;9.942;2023-03-31T03:38:43;5.28;;;1.33;;
34278;SDS011;20538;51.528;9.942;2023-03-31T03:41:08;5.63;;;1.23;;
34278;SDS011;20538;51.528;9.942;2023-03-31T03:43:34;6.05;;;1.23;;
34278;SDS011;20538;51.528;9.942;2023-03-31T03:46:00;5.30;;;1.25;;
34278;SDS011;20538;51.528;9.942;2023-03-31T03:48:26;3.78;;;1.10;;
34278;SDS011;20538;51.528;9.942;2023-03-31T03:50:51;8.88;;;1.52;;
34278;SDS011;20538;51.528;9.942;2023-03-31T03:53:18;4.80;;;1.15;;
34278;SDS011;20538;51.528;9.942;2023-03-31T03:55:44;6.50;;;1.08;;
34278;SDS011;20538;51.528;9.942;2023-03-31T03:58:13;4.90;;;1.38;;
34278;SDS011;20538;51.528;9.942;2023-03-31T04:00:39;6.80;;;1.52;;
34278;SDS011;20538;51.528;9.942;2023-03-31T04:03:05;5.53;;;1.10;;
34278;SDS011;20538;51.528;9.942;2023-03-31T04:05:31;3.08;;;1.10;;
34278;SDS011;20538;51.528;9.942;2023-03-31T04:07:56;11.07;;;1.40;;
34278;SDS011;20538;51.528;9.942;2023-03-31T04:10:22;4.50;;;1.35;;
34278;SDS011;20538;51.528;9.942;2023-03-31T04:12:47;4.90;;;1.23;;
34278;SDS011;20538;51.528;9.942;2023-03-31T04:15:13;5.50;;;1.10;;
34278;SDS011;20538;51.528;9.942;2023-03-31T04:17:39;6.78;;;1.50;;
34278;SDS011;20538;51.528;9.942;2023-03-31T04:20:08;6.57;;;1.45;;
34278;SDS011;20538;51.528;9.942;2023-03-31T04:22:37;7.20;;;1.67;;
34278;SDS011;20538;51.528;9.942;2023-03-31T04:25:06;3.33;;;1.13;;
34278;SDS011;20538;51.528;9.942;2023-03-31T04:27:34;6.82;;;1.30;;
34278;SDS011;20538;51.528;9.942;2023-03-31T04:30:00;5.15;;;1.20;;
34278;SDS011;20538;51.528;9.942;2023-03-31T04:32:25;4.05;;;1.10;;
34278;SDS011;20538;51.528;9.942;2023-03-31T04:34:52;8.15;;;1.10;;
34278;SDS011;20538;51.528;9.942;2023-03-31T04:37:28;5.00;;;1.65;;
34278;SDS011;20538;51.528;9.942;2023-03-31T04:39:59;5.45;;;1.20;;
34278;SDS011;20538;51.528;9.942;2023-03-31T04:42:28;5.35;;;0.90;;
34278;SDS011;20538;51.528;9.942;2023-03-31T04:44:57;3.95;;;0.93;;
34278;SDS011;20538;51.528;9.942;2023-03-31T04:47:22;2.45;;;0.90;;
34278;SDS011;20538;51.528;9.942;2023-03-31T04:49:48;6.38;;;0.90;;
34278;SDS011;20538;51.528;9.942;2023-03-31T04:52:13;5.10;;;1.00;;
34278;SDS011;20538;51.528;9.942;2023-03-31T04:54:39;3.28;;;0.90;;
34278;SDS011;20538;51.528;9.942;2023-03-31T04:57:05;4.45;;;1.00;;
34278;SDS011;20538;51.528;9.942;2023-03-31T04:59:30;4.88;;;0.77;;
34278;SDS011;20538;51.528;9.942;2023-03-31T05:01:56;4.63;;;1.20;;
34278;SDS011;20538;51.528;9.942;2023-03-31T05:04:21;6.72;;;1.02;;
34278;SDS011;20538;51.528;9.942;2023-03-31T05:06:47;4.50;;;1.15;;
34278;SDS011;20538;51.528;9.942;2023-03-31T05:09:13;5.97;;;0.80;;
34278;SDS011;20538;51.528;9.942;2023-03-31T05:11:38;3.45;;;1.08;;
34278;SDS011;20538;51.528;9.942;2023-03-31T05:14:04;1.67;;;0.90;;
34278;SDS011;20538;51.528;9.942;2023-03-31T05:16:30;4.50;;;1.10;;
34278;SDS011;20538;51.528;9.942;2023-03-31T05:18:55;4.00;;;1.10;;
34278;SDS011;20538;51.528;9.942;2023-03-31T05:21:21;6.38;;;1.63;;
34278;SDS011;20538;51.528;9.942;2023-03-31T05:23:47;7.20;;;1.33;;
34278;SDS011;20538;51.528;9.942;2023-03-31T05:26:13;5.40;;;1.25;;
34278;SDS011;20538;51.528;9.942;2023-03-31T05:28:39;18.77;;;2.17;;
34278;SDS011;20538;51.528;9.942;2023-03-31T05:31:06;4.05;;;1.17;;
34278;SDS011;20538;51.528;9.942;2023-03-31T05:33:32;5.18;;;0.90;;
34278;SDS011;20538;51.528;9.942;2023-03-31T05:35:58;9.40;;;1.52;;
34278;SDS011;20538;51.528;9.942;2023-03-31T05:38:24;6.25;;;1.20;;
34278;SDS011;20538;51.528;9.942;2023-03-31T05:40:53;6.35;;;1.48;;
34278;SDS011;20538;51.528;9.942;2023-03-31T05:43:19;5.25;;;1.25;;
34278;SDS011;20538;51.528;9.942;2023-03-31T05:45:45;2.38;;;1.35;;
34278;SDS011;20538;51.528;9.942;2023-03-31T05:48:11;14.73;;;4.50;;
34278;SDS011;20538;51.528;9.942;2023-03-31T05:50:36;5.40;;;2.22;;
34278;SDS011;20538;51.528;9.942;2023-03-31T05:53:02;8.55;;;1.60;;
34278;SDS011;20538;51.528;9.942;2023-03-31T05:55:28;7.82;;;1.45;;
34278;SDS011;20538;51.528;9.942;2023-03-31T05:57:53;10.02;;;1.67;;
34278;SDS011;20538;51.528;9.942;2023-03-31T06:00:19;10.73;;;1.75;;
34278;SDS011;20538;51.528;9.942;2023-03-31T06:02:45;9.15;;;1.60;;
34278;SDS011;20538;51.528;9.942;2023-03-31T06:05:11;7.80;;;1.40;;
34278;SDS011;20538;51.528;9.942;2023-03-31T06:07:36;6.65;;;2.40;;
34278;SDS011;20538;51.528;9.942;2023-03-31T06:10:02;5.05;;;1.70;;
34278;SDS011;20538;51.528;9.942;2023-03-31T06:12:28;15.10;;;1.80;;
34278;SDS011;20538;51.528;9.942;2023-03-31T06:14:53;4.95;;;1.42;;
34278;SDS011;20538;51.528;9.942;2023-03-31T06:17:19;8.20;;;1.58;;
34278;SDS011;20538;51.528;9.942;2023-03-31T06:19:45;8.82;;;2.55;;
34278;SDS011;20538;51.528;9.942;2023-03-31T06:22:10;10.23;;;2.08;;
34278;SDS011;20538;51.528;9.942;2023-03-31T06:24:36;3.33;;;1.30;;
34278;SDS011;20538;51.528;9.942;2023-03-31T06:27:01;7.20;;;1.80;;
34278;SDS011;20538;51.528;9.942;2023-03-31T06:29:28;8.43;;;1.95;;
34278;SDS011;20538;51.528;9.942;2023-03-31T06:31:53;8.13;;;1.70;;
34278;SDS011;20538;51.528;9.942;2023-03-31T06:34:20;6.30;;;2.08;;
34278;SDS011;20538;51.528;9.942;2023-03-31T06:36:45;11.38;;;2.20;;
34278;SDS011;20538;51.528;9.942;2023-03-31T06:39:11;9.45;;;1.60;;
34278;SDS011;20538;51.528;9.942;2023-03-31T06:41:37;6.00;;;1.40;;
34278;SDS011;20538;51.528;9.942;2023-03-31T06:44:03;7.80;;;2.03;;
34278;SDS011;20538;51.528;9.942;2023-03-31T06:46:28;9.63;;;1.70;;
34278;SDS011;20538;51.528;9.942;2023-03-31T06:48:54;6.18;;;1.85;;
34278;SDS011;20538;51.528;9.942;2023-03-31T06:51:20;10.60;;;2.00;;
34278;SDS011;20538;51.528;9.942;2023-03-31T06:53:45;5.60;;;1.70;;
34278;SDS011;20538;51.528;9.942;2023-03-31T06:56:11;11.75;;;2.33;;
34278;SDS011;20538;51.528;9.942;2023-03-31T06:58:37;6.18;;;1.63;;
34278;SDS011;20538;51.528;9.942;2023-03-31T07:01:03;11.05;;;2.20;;
34278;SDS011;20538;51.528;9.942;2023-03-31T07:03:30;5.03;;;1.60;;
34278;SDS011;20538;51.528;9.942;2023-03-31T07:05:56;10.00;;;1.90;;
34278;SDS011;20538;51.528;9.942;2023-03-31T07:08:22;5.95;;;1.75;;
34278;SDS011;20538;51.528;9.942;2023-03-31T07:10:49;7.53;;;1.85;;
34278;SDS011;20538;51.528;9.942;2023-03-31T07:13:19;5.18;;;1.75;;
34278;SDS011;20538;51.528;9.942;2023-03-31T07:15:48;8.75;;;2.00;;
34278;SDS011;20538;51.528;9.942;2023-03-31T07:18:14;9.38;;;2.05;;
34278;SDS011;20538;51.528;9.942;2023-03-31T07:20:41;8.27;;;2.20;;
34278;SDS011;20538;51.528;9.942;2023-03-31T07:23:08;7.85;;;1.65;;
34278;SDS011;20538;51.528;9.942;2023-03-31T07:25:34;6.85;;;2.15;;
34278;SDS011;20538;51.528;9.942;2023-03-31T07:28:00;5.97;;;2.22;;
34278;SDS011;20538;51.528;9.942;2023-03-31T07:30:27;10.25;;;2.40;;
34278;SDS011;20538;51.528;9.942;2023-03-31T07:32:52;8.02;;;2.30;;
34278;SDS011;20538;51.528;9.942;2023-03-31T07:35:18;13.13;;;2.08;;
34278;SDS011;20538;51.528;9.942;2023-03-31T07:37:45;8.45;;;2.20;;
34278;SDS011;20538;51.528;9.942;2023-03-31T07:40:22;8.73;;;2.00;;
34278;SDS011;20538;51.528;9.942;2023-03-31T07:42:50;8.30;;;2.20;;
34278;SDS011;20538;51.528;9.942;2023-03-31T07:45:16;9.40;;;3.38;;
34278;SDS011;20538;51.528;9.942;2023-03-31T07:47:43;9.68;;;2.83;;
34278;SDS011;20538;51.528;9.942;2023-03-31T07:50:10;10.13;;;2.40;;
34278;SDS011;20538;51.528;9.942;2023-03-31T07:52:37;14.70;;;2.58;;
34278;SDS011;20538;51.528;9.942;2023-03-31T07:55:04;10.93;;;3.53;;
34278;SDS011;20538;51.528;9.942;2023-03-31T07:57:31;9.63;;;2.63;;
34278;SDS011;20538;51.528;9.942;2023-03-31T07:59:57;7.80;;;2.47;;
34278;SDS011;20538;51.528;9.942;2023-03-31T08:02:23;7.55;;;2.33;;
34278;SDS011;20538;51.528;9.942;2023-03-31T08:04:48;12.50;;;2.28;;
34278;SDS011;20538;51.528;9.942;2023-03-31T08:07:15;9.98;;;2.15;;
34278;SDS011;20538;51.528;9.942;2023-03-31T08:09:42;10.73;;;2.63;;
34278;SDS011;20538;51.528;9.942;2023-03-31T08:12:09;7.97;;;2.00;;
34278;SDS011;20538;51.528;9.942;2023-03-31T08:14:35;7.85;;;1.90;;
34278;SDS011;20538;51.528;9.942;2023-03-31T08:17:01;4.55;;;1.80;;
34278;SDS011;20538;51.528;9.942;2023-03-31T08:19:27;11.90;;;2.03;;
34278;SDS011;20538;51.528;9.942;2023-03-31T08:21:53;9.82;;;1.88;;
34278;SDS011;20538;51.528;9.942;2023-03-31T08:24:18;4.70;;;1.15;;
34278;SDS011;20538;51.528;9.942;2023-03-31T08:26:44;5.40;;;1.30;;
34278;SDS011;20538;51.528;9.942;2023-03-31T08:29:10;5.35;;;1.40;;
34278;SDS011;20538;51.528;9.942;2023-03-31T08:31:36;3.28;;;1.30;;
34278;SDS011;20538;51.528;9.942;2023-03-31T08:34:02;2.83;;;1.05;;
34278;SDS011;20538;51.528;9.942;2023-03-31T08:36:28;6.25;;;1.20;;
34278;SDS011;20538;51.528;9.942;2023-03-31T08:38:54;3.13;;;1.00;;
34278;SDS011;20538;51.528;9.942;2023-03-31T08:44:21;5.65;;;1.23;;
34278;SDS011;20538;51.528;9.942;2023-03-31T08:47:04;6.20;;;1.10;;
34278;SDS011;20538;51.528;9.942;2023-03-31T08:49:54;4.90;;;1.10;;
34278;SDS011;20538;51.528;9.942;2023-03-31T08:52:28;2.22;;;0.98;;
34278;SDS011;20538;51.528;9.942;2023-03-31T08:55:01;5.93;;;1.25;;
34278;SDS011;20538;51.528;9.942;2023-03-31T08:57:46;4.80;;;1.30;;
34278;SDS011;20538;51.528;9.942;2023-03-31T09:00:23;8.48;;;1.67;;
34278;SDS011;20538;51.528;9.942;2023-03-31T09:03:01;3.55;;;0.80;;
34278;SDS011;20538;51.528;9.942;2023-03-31T09:08:35;4.50;;;1.38;;
34278;SDS011;20538;51.528;9.942;2023-03-31T09:16:30;3.20;;;1.63;;
34278;SDS011;20538;51.528;9.942;2023-03-31T09:19:01;2.97;;;1.05;;
34278;SDS011;20538;51.528;9.942;2023-03-31T09:21:29;6.55;;;1.35;;
34278;SDS011;20538;51.528;9.942;2023-03-31T09:24:09;4.28;;;1.27;;
34278;SDS011;20538;51.528;9.942;2023-03-31T09:27:00;5.22;;;1.50;;
34278;SDS011;20538;51.528;9.942;2023-03-31T09:32:23;4.15;;;1.20;;
34278;SDS011;20538;51.528;9.942;2023-03-31T09:34:53;3.35;;;1.33;;
34278;SDS011;20538;51.528;9.942;2023-03-31T09:37:25;3.55;;;1.10;;
34278;SDS011;20538;51.528;9.942;2023-03-31T09:39:54;4.93;;;1.40;;
34278;SDS011;20538;51.528;9.942;2023-03-31T09:42:23;4.47;;;1.23;;
34278;SDS011;20538;51.528;9.942;2023-03-31T09:44:48;3.03;;;1.40;;
34278;SDS011;20538;51.528;9.942;2023-03-31T09:47:15;3.83;;;1.20;;
34278;SDS011;20538;51.528;9.942;2023-03-31T09:50:03;3.20;;;0.98;;
34278;SDS011;20538;51.528;9.942;2023-03-31T09:52:37;1.23;;;0.80;;
34278;SDS011;20538;51.528;9.942;2023-03-31T09:55:15;2.38;;;1.10;;
34278;SDS011;20538;51.528;9.942;2023-03-31T09:57:43;1.48;;;0.73;;
34278;SDS011;20538;51.528;9.942;2023-03-31T10:00:14;3.65;;;0.90;;
34278;SDS011;20538;51.528;9.942;2023-03-31T10:05:27;2.40;;;0.90;;
34278;SDS011;20538;51.528;9.942;2023-03-31T10:10:42;3.67;;;0.80;;
34278;SDS011;20538;51.528;9.942;2023-03-31T10:13:10;1.30;;;0.68;;
34278;SDS011;20538;51.528;9.942;2023-03-31T10:15:41;3.35;;;1.13;;
34278;SDS011;20538;51.528;9.942;2023-03-31T10:18:13;4.35;;;1.45;;
34278;SDS011;20538;51.528;9.942;2023-03-31T10:20:43;1.65;;;0.77;;
34278;SDS011;20538;51.528;9.942;2023-03-31T10:25:52;5.55;;;0.88;;
34278;SDS011;20538;51.528;9.942;2023-03-31T10:28:19;1.33;;;0.98;;
34278;SDS011;20538;51.528;9.942;2023-03-31T10:30:50;2.05;;;0.82;;
34278;SDS011;20538;51.528;9.942;2023-03-31T10:33:19;3.03;;;0.93;;
34278;SDS011;20538;51.528;9.942;2023-03-31T10:35:49;1.70;;;0.80;;
34278;SDS011;20538;51.528;9.942;2023-03-31T10:38:26;2.45;;;0.75;;
34278;SDS011;20538;51.528;9.942;2023-03-31T10:40:57;2.67;;;0.90;;
34278;SDS011;20538;51.528;9.942;2023-03-31T10:43:34;2.60;;;1.00;;
34278;SDS011;20538;51.528;9.942;2023-03-31T10:46:12;2.92;;;1.20;;
34278;SDS011;20538;51.528;9.942;2023-03-31T10:48:38;2.03;;;0.90;;
34278;SDS011;20538;51.528;9.942;2023-03-31T10:53:51;1.85;;;0.60;;
34278;SDS011;20538;51.528;9.942;2023-03-31T11:10:36;2.42;;;0.85;;
34278;SDS011;20538;51.528;9.942;2023-03-31T11:13:20;3.50;;;0.82;;
34278;SDS011;20538;51.528;9.942;2023-03-31T11:21:42;3.83;;;0.85;;
34278;SDS011;20538;51.528;9.942;2023-03-31T11:24:27;2.65;;;0.95;;
34278;SDS011;20538;51.528;9.942;2023-03-31T11:27:30;3.78;;;0.85;;
34278;SDS011;20538;51.528;9.942;2023-03-31T11:43:29;3.78;;;1.05;;
34278;SDS011;20538;51.528;9.942;2023-03-31T11:46:07;3.80;;;0.73;;
34278;SDS011;20538;51.528;9.942;2023-03-31T11:48:56;5.03;;;1.20;;
34278;SDS011;20538;51.528;9.942;2023-03-31T11:51:30;3.08;;;0.98;;
34278;SDS011;20538;51.528;9.942;2023-03-31T11:54:00;4.75;;;0.95;;
34278;SDS011;20538;51.528;9.942;2023-03-31T11:56:34;5.68;;;1.45;;
34278;SDS011;20538;51.528;9.942;2023-03-31T11:59:01;12.55;;;1.55;;
34278;SDS011;20538;51.528;9.942;2023-03-31T12:06:58;2.38;;;1.25;;
34278;SDS011;20538;51.528;9.942;2023-03-31T12:09:33;4.28;;;1.15;;
34278;SDS011;20538;51.528;9.942;2023-03-31T12:12:17;4.13;;;1.15;;
34278;SDS011;20538;51.528;9.942;2023-03-31T12:14:58;6.30;;;1.17;;
34278;SDS011;20538;51.528;9.942;2023-03-31T12:17:47;4.10;;;1.20;;
34278;SDS011;20538;51.528;9.942;2023-03-31T12:20:27;8.40;;;1.50;;
34278;SDS011;20538;51.528;9.942;2023-03-31T12:22:53;4.03;;;1.20;;
34278;SDS011;20538;51.528;9.942;2023-03-31T12:25:22;4.50;;;1.10;;
34278;SDS011;20538;51.528;9.942;2023-03-31T12:27:50;2.17;;;0.80;;
34278;SDS011;20538;51.528;9.942;2023-03-31T12:30:27;4.13;;;1.42;;
34278;SDS011;20538;51.528;9.942;2023-03-31T12:47:12;9.05;;;1.35;;
34278;SDS011;20538;51.528;9.942;2023-03-31T12:53:02;5.50;;;1.10;;
34278;SDS011;20538;51.528;9.942;2023-03-31T12:55:36;4.40;;;1.50;;
34278;SDS011;20538;51.528;9.942;2023-03-31T12:58:44;5.85;;;1.73;;
34278;SDS011;20538;51.528;9.942;2023-03-31T13:06:00;5.75;;;1.27;;
34278;SDS011;20538;51.528;9.942;2023-03-31T13:16:48;5.72;;;1.42;;
34278;SDS011;20538;51.528;9.942;2023-03-31T13:19:34;4.07;;;1.45;;
34278;SDS011;20538;51.528;9.942;2023-03-31T13:22:01;8.07;;;1.58;;
34278;SDS011;20538;51.528;9.942;2023-03-31T13:24:29;7.20;;;1.42;;
34278;SDS011;20538;51.528;9.942;2023-03-31T13:27:44;3.75;;;1.30;;
34278;SDS011;20538;51.528;9.942;2023-03-31T13:29:58;5.15;;;1.40;;
34278;SDS011;20538;51.528;9.942;2023-03-31T13:32:24;5.80;;;1.38;;
34278;SDS011;20538;51.528;9.942;2023-03-31T13:40:50;4.38;;;1.40;;
34278;SDS011;20538;51.528;9.942;2023-03-31T13:51:53;4.55;;;1.15;;
34278;SDS011;20538;51.528;9.942;2023-03-31T13:54:34;3.28;;;1.20;;
34278;SDS011;20538;51.528;9.942;2023-03-31T14:05:47;6.00;;;1.60;;
34278;SDS011;20538;51.528;9.942;2023-03-31T14:10:48;5.10;;;1.40;;
34278;SDS011;20538;51.528;9.942;2023-03-31T14:13:14;3.17;;;1.33;;
34278;SDS011;20538;51.528;9.942;2023-03-31T14:15:57;2.67;;;1.10;;
34278;SDS011;20538;51.528;9.942;2023-03-31T14:18:27;4.53;;;1.13;;
34278;SDS011;20538;51.528;9.942;2023-03-31T14:26:00;2.15;;;0.90;;
34278;SDS011;20538;51.528;9.942;2023-03-31T14:31:27;3.95;;;1.20;;
34278;SDS011;20538;51.528;9.942;2023-03-31T14:37:04;5.25;;;1.35;;
34278;SDS011;20538;51.528;9.942;2023-03-31T14:39:34;2.95;;;1.23;;
34278;SDS011;20538;51.528;9.942;2023-03-31T14:42:05;6.03;;;1.27;;
34278;SDS011;20538;51.528;9.942;2023-03-31T14:44:41;2.33;;;1.08;;
34278;SDS011;20538;51.528;9.942;2023-03-31T14:47:12;3.30;;;1.08;;
34278;SDS011;20538;51.528;9.942;2023-03-31T14:49:39;3.80;;;0.80;;
34278;SDS011;20538;51.528;9.942;2023-03-31T14:52:19;4.43;;;0.70;;
34278;SDS011;20538;51.528;9.942;2023-03-31T14:54:47;1.55;;;0.60;;
34278;SDS011;20538;51.528;9.942;2023-03-31T14:57:15;1.23;;;0.50;;
34278;SDS011;20538;51.528;9.942;2023-03-31T14:59:44;1.38;;;0.60;;
34278;SDS011;20538;51.528;9.942;2023-03-31T15:02:16;1.75;;;0.47;;
34278;SDS011;20538;51.528;9.942;2023-03-31T15:04:52;2.90;;;0.50;;
34278;SDS011;20538;51.528;9.942;2023-03-31T15:07:20;0.88;;;0.57;;
34278;SDS011;20538;51.528;9.942;2023-03-31T15:09:48;2.60;;;0.70;;
34278;SDS011;20538;51.528;9.942;2023-03-31T15:12:16;2.05;;;0.90;;
34278;SDS011;20538;51.528;9.942;2023-03-31T15:14:45;3.08;;;0.70;;
34278;SDS011;20538;51.528;9.942;2023-03-31T15:17:18;2.47;;;0.88;;
34278;SDS011;20538;51.528;9.942;2023-03-31T15:19:57;1.45;;;0.88;;
34278;SDS011;20538;51.528;9.942;2023-03-31T15:22:25;3.53;;;1.35;;
34278;SDS011;20538;51.528;9.942;2023-03-31T15:24:53;4.07;;;0.85;;
34278;SDS011;20538;51.528;9.942;2023-03-31T15:27:35;1.05;;;0.52;;
34278;SDS011;20538;51.528;9.942;2023-03-31T15:30:05;2.22;;;0.70;;
34278;SDS011;20538;51.528;9.942;2023-03-31T15:32:37;2.13;;;0.60;;
34278;SDS011;20538;51.528;9.942;2023-03-31T15:35:04;1.25;;;0.80;;
34278;SDS011;20538;51.528;9.942;2023-03-31T15:37:41;3.88;;;0.68;;
34278;SDS011;20538;51.528;9.942;2023-03-31T15:40:30;1.83;;;0.50;;
34278;SDS011;20538;51.528;9.942;2023-03-31T15:43:13;0.98;;;0.70;;
34278;SDS011;20538;51.528;9.942;2023-03-31T15:45:52;2.08;;;1.00;;
34278;SDS011;20538;51.528;9.942;2023-03-31T15:48:22;1.60;;;0.70;;
34278;SDS011;20538;51.528;9.942;2023-03-31T15:53:42;1.52;;;0.63;;
34278;SDS011;20538;51.528;9.942;2023-03-31T15:56:22;1.35;;;0.60;;
34278;SDS011;20538;51.528;9.942;2023-03-31T15:59:04;2.15;;;1.10;;
34278;SDS011;20538;51.528;9.942;2023-03-31T16:01:43;2.38;;;0.90;;
34278;SDS011;20538;51.528;9.942;2023-03-31T16:04:11;2.08;;;0.68;;
34278;SDS011;20538;51.528;9.942;2023-03-31T16:09:08;1.00;;;0.75;;
34278;SDS011;20538;51.528;9.942;2023-03-31T16:11:52;2.28;;;0.93;;
34278;SDS011;20538;51.528;9.942;2023-03-31T16:14:22;3.05;;;0.90;;
34278;SDS011;20538;51.528;9.942;2023-03-31T16:16:51;2.13;;;0.75;;
34278;SDS011;20538;51.528;9.942;2023-03-31T16:19:36;5.00;;;1.23;;
34278;SDS011;20538;51.528;9.942;2023-03-31T16:22:06;5.50;;;1.00;;
34278;SDS011;20538;51.528;9.942;2023-03-31T16:24:41;1.80;;;0.85;;
34278;SDS011;20538;51.528;9.942;2023-03-31T16:27:07;3.75;;;1.50;;
34278;SDS011;20538;51.528;9.942;2023-03-31T16:29:34;2.00;;;1.00;;
34278;SDS011;20538;51.528;9.942;2023-03-31T16:32:08;5.03;;;1.20;;
34278;SDS011;20538;51.528;9.942;2023-03-31T16:37:23;7.35;;;1.30;;
34278;SDS011;20538;51.528;9.942;2023-03-31T16:39:49;3.72;;;0.90;;
34278;SDS011;20538;51.528;9.942;2023-03-31T16:42:15;2.80;;;1.00;;
34278;SDS011;20538;51.528;9.942;2023-03-31T16:44:42;5.63;;;1.08;;
34278;SDS011;20538;51.528;9.942;2023-03-31T16:47:08;4.30;;;1.13;;
34278;SDS011;20538;51.528;9.942;2023-03-31T16:49:34;3.97;;;1.30;;
34278;SDS011;20538;51.528;9.942;2023-03-31T16:51:59;6.10;;;1.10;;
34278;SDS011;20538;51.528;9.942;2023-03-31T16:54:25;3.30;;;0.90;;
34278;SDS011;20538;51.528;9.942;2023-03-31T16:56:52;4.30;;;1.15;;
34278;SDS011;20538;51.528;9.942;2023-03-31T16:59:18;3.70;;;1.80;;
34278;SDS011;20538;51.528;9.942;2023-03-31T17:01:43;3.80;;;1.60;;
34278;SDS011;20538;51.528;9.942;2023-03-31T17:04:10;7.70;;;1.85;;
34278;SDS011;20538;51.528;9.942;2023-03-31T17:06:36;8.10;;;2.35;;
34278;SDS011;20538;51.528;9.942;2023-03-31T17:09:01;6.60;;;2.15;;
34278;SDS011;20538;51.528;9.942;2023-03-31T17:11:27;5.32;;;1.95;;
34278;SDS011;20538;51.528;9.942;2023-03-31T17:13:54;7.03;;;1.77;;
34278;SDS011;20538;51.528;9.942;2023-03-31T17:16:20;8.27;;;1.90;;
34278;SDS011;20538;51.528;9.942;2023-03-31T17:18:46;7.75;;;2.20;;
34278;SDS011;20538;51.528;9.942;2023-03-31T17:21:15;8.50;;;2.85;;
34278;SDS011;20538;51.528;9.942;2023-03-31T17:23:43;5.28;;;2.00;;
34278;SDS011;20538;51.528;9.942;2023-03-31T17:26:10;6.10;;;2.00;;
34278;SDS011;20538;51.528;9.942;2023-03-31T17:28:39;7.47;;;2.15;;
34278;SDS011;20538;51.528;9.942;2023-03-31T17:31:23;8.25;;;1.90;;
34278;SDS011;20538;51.528;9.942;2023-03-31T17:33:49;6.70;;;1.98;;
34278;SDS011;20538;51.528;9.942;2023-03-31T17:36:15;6.28;;;1.52;;
34278;SDS011;20538;51.528;9.942;2023-03-31T17:38:41;4.22;;;1.85;;
34278;SDS011;20538;51.528;9.942;2023-03-31T17:41:08;7.38;;;1.70;;
34278;SDS011;20538;51.528;9.942;2023-03-31T17:43:36;3.03;;;1.55;;
34278;SDS011;20538;51.528;9.942;2023-03-31T17:46:06;6.15;;;1.73;;
34278;SDS011;20538;51.528;9.942;2023-03-31T17:48:36;4.40;;;1.23;;
34278;SDS011;20538;51.528;9.942;2023-03-31T17:51:07;6.32;;;2.00;;
34278;SDS011;20538;51.528;9.942;2023-03-31T17:53:37;5.53;;;1.60;;
34278;SDS011;20538;51.528;9.942;2023-03-31T17:56:04;7.88;;;2.13;;
34278;SDS011;20538;51.528;9.942;2023-03-31T17:58:32;5.78;;;1.70;;
34278;SDS011;20538;51.528;9.942;2023-03-31T18:00:57;3.38;;;1.38;;
34278;SDS011;20538;51.528;9.942;2023-03-31T18:03:23;6.93;;;1.65;;
34278;SDS011;20538;51.528;9.942;2023-03-31T18:05:52;7.20;;;1.50;;
34278;SDS011;20538;51.528;9.942;2023-03-31T18:08:18;7.55;;;2.00;;
34278;SDS011;20538;51.528;9.942;2023-03-31T18:10:43;10.48;;;2.38;;